createdAt,value
2018-08-03T00:01:08.856Z,9.43
2018-08-03T00:03:37.812Z,9.60
2018-08-03T00:06:06.784Z,10.17
2018-08-03T00:08:35.760Z,9.60
2018-08-03T00:11:04.788Z,9.77
2018-08-03T00:13:33.739Z,10.03
2018-08-03T00:16:02.707Z,10.37
2018-08-03T00:18:31.713Z,11.70
2018-08-03T00:21:15.403Z,10.30
2018-08-03T00:23:44.380Z,10.40
2018-08-03T00:26:13.359Z,11.13
2018-08-03T00:28:42.312Z,10.30
2018-08-03T00:31:11.345Z,11.50
2018-08-03T00:33:40.297Z,9.50
2018-08-03T00:36:09.320Z,9.80
2018-08-03T00:38:38.321Z,9.40
2018-08-03T00:41:07.412Z,10.37
2018-08-03T00:43:36.477Z,10.57
2018-08-03T00:46:05.488Z,11.47
2018-08-03T00:48:34.448Z,9.73
2018-08-03T00:51:03.399Z,10.00
2018-08-03T00:53:32.375Z,9.60
2018-08-03T00:56:01.437Z,9.43
2018-08-03T00:58:30.469Z,10.40
2018-08-03T01:00:59.424Z,10.60
2018-08-03T01:03:28.433Z,9.70
2018-08-03T01:05:57.392Z,10.10
2018-08-03T01:08:27.269Z,10.07
2018-08-03T01:10:56.217Z,10.00
2018-08-03T01:13:25.176Z,9.83
2018-08-03T01:15:54.143Z,9.20
2018-08-03T01:18:23.131Z,11.33
2018-08-03T01:20:52.092Z,9.73
2018-08-03T01:23:21.128Z,9.77
2018-08-03T01:25:50.158Z,9.80
2018-08-03T01:28:19.265Z,9.83
2018-08-03T01:30:48.270Z,10.07
2018-08-03T01:33:17.303Z,9.50
2018-08-03T01:35:46.271Z,10.10
2018-08-03T01:38:15.289Z,10.27
2018-08-03T01:40:44.373Z,9.97
2018-08-03T01:43:13.396Z,11.30
2018-08-03T01:45:42.363Z,11.40
2018-08-03T01:48:11.372Z,11.03
2018-08-03T01:50:40.385Z,10.57
2018-08-03T01:53:09.356Z,11.13
2018-08-03T01:55:38.352Z,9.83
2018-08-03T01:58:07.416Z,9.80
2018-08-03T02:00:36.363Z,10.70
2018-08-03T02:03:05.322Z,10.23
2018-08-03T02:05:34.320Z,10.40
2018-08-03T02:08:03.461Z,10.20
2018-08-03T02:10:32.512Z,10.90
2018-08-03T02:13:01.473Z,9.70
2018-08-03T02:15:30.554Z,10.40
2018-08-03T02:17:59.620Z,10.20
2018-08-03T02:20:28.694Z,9.40
2018-08-03T02:22:57.657Z,10.27
2018-08-03T02:25:26.639Z,11.37
2018-08-03T02:27:55.649Z,10.17
2018-08-03T02:30:24.733Z,10.47
2018-08-03T02:32:53.741Z,10.03
2018-08-03T02:35:22.776Z,11.80
2018-08-03T02:37:51.824Z,10.30
2018-08-03T02:40:20.910Z,9.93
2018-08-03T02:42:49.909Z,10.20
2018-08-03T02:45:18.868Z,9.67
2018-08-03T02:47:47.796Z,8.63
2018-08-03T02:50:16.808Z,9.00
2018-08-03T02:52:45.760Z,9.80
2018-08-03T02:55:14.821Z,11.40
2018-08-03T02:57:43.881Z,11.67
2018-08-03T03:00:12.879Z,11.20
2018-08-03T03:02:41.843Z,11.87
2018-08-03T03:05:10.918Z,11.67
2018-08-03T03:07:39.889Z,12.87
2018-08-03T03:10:08.851Z,13.30
2018-08-03T03:12:37.931Z,12.83
2018-08-03T03:15:07.280Z,12.53
2018-08-03T03:17:36.392Z,12.80
2018-08-03T03:20:05.411Z,13.50
2018-08-03T03:22:34.385Z,13.43
2018-08-03T03:25:03.386Z,12.13
2018-08-03T03:27:32.336Z,11.90
2018-08-03T03:30:01.364Z,13.87
2018-08-03T03:32:30.418Z,12.70
2018-08-03T03:34:59.464Z,12.77
2018-08-03T03:37:28.480Z,11.30
2018-08-03T03:39:57.518Z,12.67
2018-08-03T03:42:26.514Z,13.67
2018-08-03T03:44:55.578Z,11.97
2018-08-03T03:47:24.581Z,11.63
2018-08-03T03:49:53.773Z,13.00
2018-08-03T03:52:22.728Z,11.50
2018-08-03T03:54:51.691Z,11.53
2018-08-03T03:57:20.708Z,11.30
2018-08-03T03:59:49.808Z,12.67
2018-08-03T04:02:18.881Z,11.70
2018-08-03T04:04:47.899Z,11.43
2018-08-03T04:07:16.852Z,10.13
2018-08-03T04:09:45.844Z,26.67
2018-08-03T04:12:14.901Z,14.07
2018-08-03T04:14:43.913Z,12.20
2018-08-03T04:17:12.900Z,9.93
2018-08-03T04:19:41.917Z,10.10
2018-08-03T04:22:10.883Z,10.90
2018-08-03T04:24:39.904Z,11.50
2018-08-03T04:27:08.951Z,11.63
2018-08-03T04:29:38.050Z,10.03
2018-08-03T04:32:07.145Z,10.57
2018-08-03T04:34:36.130Z,9.03
2018-08-03T04:37:05.172Z,10.23
2018-08-03T04:39:34.204Z,10.33
2018-08-03T04:42:04.069Z,12.23
2018-08-03T04:44:33.249Z,12.63
2018-08-03T04:47:02.247Z,15.00
2018-08-03T04:49:31.228Z,15.07
2018-08-03T04:52:00.516Z,13.80
2018-08-03T04:54:29.545Z,11.57
2018-08-03T04:56:58.613Z,11.33
2018-08-03T04:59:27.842Z,9.10
2018-08-03T05:01:56.836Z,9.40
2018-08-03T05:04:25.854Z,9.60
2018-08-03T05:06:54.884Z,8.53
2018-08-03T05:09:23.946Z,7.90
2018-08-03T05:11:53.032Z,7.00
2018-08-03T05:14:22.095Z,8.13
2018-08-03T05:16:51.122Z,8.57
2018-08-03T05:19:20.087Z,8.10
2018-08-03T05:21:49.109Z,8.47
2018-08-03T05:24:18.198Z,7.10
2018-08-03T05:26:47.172Z,7.97
2018-08-03T05:29:16.183Z,7.90
2018-08-03T05:31:45.172Z,6.00
2018-08-03T05:34:14.196Z,5.33
2018-08-03T05:36:43.168Z,5.80
2018-08-03T05:39:12.484Z,6.20
2018-08-03T05:41:41.569Z,6.50
2018-08-03T05:44:10.596Z,5.57
2018-08-03T05:46:39.690Z,5.77
2018-08-03T05:49:08.727Z,5.40
2018-08-03T05:51:37.761Z,5.93
2018-08-03T05:54:06.874Z,5.90
2018-08-03T05:56:35.920Z,5.60
2018-08-03T05:59:04.875Z,5.93
2018-08-03T06:01:33.958Z,6.10
2018-08-03T06:04:03.061Z,6.27
2018-08-03T06:06:32.133Z,6.03
2018-08-03T06:09:01.157Z,6.30
2018-08-03T06:11:30.201Z,6.30
2018-08-03T06:13:59.180Z,5.57
2018-08-03T06:16:28.176Z,5.47
2018-08-03T06:18:57.252Z,6.20
2018-08-03T06:21:26.235Z,6.33
2018-08-03T06:23:55.324Z,5.70
2018-08-03T06:26:24.352Z,5.73
2018-08-03T06:28:53.856Z,5.47
2018-08-03T06:31:22.948Z,5.50
2018-08-03T06:33:51.947Z,6.10
2018-08-03T06:36:20.932Z,6.40
2018-08-03T06:38:49.991Z,4.97
2018-08-03T06:41:18.967Z,5.87
2018-08-03T06:43:47.940Z,5.20
2018-08-03T06:46:16.952Z,5.67
2018-08-03T06:48:46.011Z,5.50
2018-08-03T06:51:14.995Z,5.43
2018-08-03T06:53:44.000Z,5.30
2018-08-03T06:56:12.993Z,4.80
2018-08-03T06:58:41.991Z,5.47
2018-08-03T07:01:11.070Z,5.10
2018-08-03T07:03:40.127Z,5.60
2018-08-03T07:06:09.156Z,5.67
2018-08-03T07:08:38.129Z,5.93
2018-08-03T07:11:07.433Z,6.53
2018-08-03T07:13:36.420Z,5.97
2018-08-03T07:16:05.449Z,5.60
2018-08-03T07:18:34.480Z,6.23
2018-08-03T07:21:03.582Z,5.80
2018-08-03T07:23:32.635Z,6.33
2018-08-03T07:26:01.686Z,5.57
2018-08-03T07:28:30.813Z,6.57
2018-08-03T07:30:59.845Z,6.53
2018-08-03T07:33:28.847Z,6.60
2018-08-03T07:35:57.913Z,5.90
2018-08-03T07:38:26.891Z,6.70
2018-08-03T07:40:55.988Z,5.77
2018-08-03T07:43:25.092Z,6.90
2018-08-03T07:45:54.158Z,6.30
2018-08-03T07:48:23.157Z,6.70
2018-08-03T07:50:52.208Z,6.60
2018-08-03T07:53:21.203Z,6.37
2018-08-03T07:55:50.176Z,6.67
2018-08-03T07:58:19.164Z,6.33
2018-08-03T08:00:48.127Z,6.10
2018-08-03T08:03:17.158Z,6.73
2018-08-03T08:05:46.300Z,6.20
2018-08-03T08:08:15.361Z,6.07
2018-08-03T08:10:44.405Z,6.40
2018-08-03T08:13:13.447Z,6.17
2018-08-03T08:15:42.486Z,6.17
2018-08-03T08:18:11.552Z,5.77
2018-08-03T08:20:40.529Z,5.53
2018-08-03T08:23:09.585Z,6.60
2018-08-03T08:25:38.570Z,6.67
2018-08-03T08:28:07.745Z,5.90
2018-08-03T08:30:36.774Z,6.40
2018-08-03T08:33:05.882Z,6.63
2018-08-03T08:35:34.925Z,6.67
2018-08-03T08:38:03.964Z,6.10
2018-08-03T08:40:33.012Z,7.30
2018-08-03T08:43:02.048Z,6.47
2018-08-03T08:45:31.046Z,6.90
2018-08-03T08:48:00.157Z,7.13
2018-08-03T08:50:29.152Z,6.70
2018-08-03T08:52:58.574Z,7.10
2018-08-03T08:55:27.666Z,7.17
2018-08-03T08:57:56.717Z,6.70
2018-08-03T09:00:25.783Z,8.00
2018-08-03T09:02:54.832Z,6.67
2018-08-03T09:05:23.880Z,6.77
2018-08-03T09:07:52.981Z,6.27
2018-08-03T09:10:22.085Z,6.47
2018-08-03T09:12:51.111Z,6.70
2018-08-03T09:15:20.093Z,5.93
2018-08-03T09:17:49.565Z,7.00
2018-08-03T09:20:18.544Z,6.80
2018-08-03T09:22:47.581Z,6.87
2018-08-03T09:25:16.668Z,6.97
2018-08-03T09:27:45.712Z,7.10
2018-08-03T09:30:14.724Z,7.77
2018-08-03T09:32:43.702Z,6.83
2018-08-03T09:35:12.732Z,5.83
2018-08-03T09:37:41.778Z,6.93
2018-08-03T09:40:10.842Z,6.10
2018-08-03T09:42:39.868Z,7.07
2018-08-03T09:45:08.856Z,6.27
2018-08-03T09:47:37.880Z,6.97
2018-08-03T09:50:06.868Z,6.97
2018-08-03T09:52:35.897Z,6.70
2018-08-03T09:55:05.048Z,7.40
2018-08-03T09:57:34.020Z,6.70
2018-08-03T10:00:03.029Z,6.23
2018-08-03T10:02:32.117Z,6.37
2018-08-03T10:05:01.218Z,7.00
2018-08-03T10:07:30.317Z,6.60
2018-08-03T10:09:59.305Z,6.30
2018-08-03T10:12:28.322Z,7.30
2018-08-03T10:14:57.438Z,7.10
2018-08-03T10:17:26.474Z,6.70
2018-08-03T10:19:55.502Z,6.10
2018-08-03T10:22:24.575Z,6.27
2018-08-03T10:24:54.049Z,6.83
2018-08-03T10:27:23.008Z,6.23
2018-08-03T10:29:52.010Z,6.37
2018-08-03T10:32:21.093Z,6.00
2018-08-03T10:34:50.209Z,5.80
2018-08-03T10:37:19.177Z,6.47
2018-08-03T10:39:48.220Z,5.60
2018-08-03T10:42:17.257Z,5.60
2018-08-03T10:44:46.207Z,6.22
2018-08-03T10:47:15.333Z,5.85
2018-08-03T10:49:44.275Z,5.90
2018-08-03T10:52:13.245Z,7.10
2018-08-03T10:54:42.288Z,6.45
2018-08-03T10:57:11.281Z,6.33
2018-08-03T10:59:40.571Z,6.13
2018-08-03T11:02:09.745Z,6.17
2018-08-03T11:04:39.237Z,6.90
2018-08-03T11:07:08.281Z,5.60
2018-08-03T11:09:37.314Z,6.13
2018-08-03T11:12:06.488Z,6.03
2018-08-03T11:14:35.465Z,6.27
2018-08-03T11:17:04.444Z,6.70
2018-08-03T11:19:33.611Z,5.60
2018-08-03T11:22:02.596Z,6.05
2018-08-03T11:24:31.658Z,5.30
2018-08-03T11:27:00.668Z,6.33
2018-08-03T11:29:29.621Z,6.17
2018-08-03T11:31:58.620Z,5.75
2018-08-03T11:34:27.581Z,6.17
2018-08-03T11:36:56.578Z,6.03
2018-08-03T11:39:25.536Z,5.42
2018-08-03T11:41:54.626Z,5.90
2018-08-03T11:44:23.661Z,5.30
2018-08-03T11:46:52.708Z,6.25
2018-08-03T11:49:21.684Z,5.70
2018-08-03T11:51:50.703Z,6.10
2018-08-03T11:54:20.658Z,6.93
2018-08-03T11:56:49.672Z,6.60
2018-08-03T11:59:18.639Z,6.10
2018-08-03T12:01:47.716Z,6.37
2018-08-03T12:04:16.835Z,6.23
2018-08-03T12:06:45.908Z,5.80
2018-08-03T12:09:14.907Z,5.10
2018-08-03T12:11:43.880Z,5.17
2018-08-03T12:14:12.914Z,5.40
2018-08-03T12:16:41.938Z,4.55
2018-08-03T12:19:10.959Z,4.62
2018-08-03T12:21:39.988Z,4.90
2018-08-03T12:24:09.032Z,5.22
2018-08-03T12:26:38.119Z,5.28
2018-08-03T12:29:07.068Z,6.30
2018-08-03T12:31:36.134Z,6.43
2018-08-03T12:34:05.242Z,5.77
2018-08-03T12:36:34.297Z,5.90
2018-08-03T12:39:03.408Z,5.63
2018-08-03T12:41:32.429Z,5.27
2018-08-03T12:44:01.465Z,5.23
2018-08-03T12:46:30.493Z,4.67
2018-08-03T12:48:59.529Z,4.45
2018-08-03T12:51:28.514Z,5.40
2018-08-03T12:53:57.528Z,4.97
2018-08-03T12:56:26.592Z,4.87
2018-08-03T12:58:55.620Z,4.87
2018-08-03T13:01:24.673Z,4.28
2018-08-03T13:03:53.693Z,4.28
2018-08-03T13:06:22.765Z,3.85
2018-08-03T13:08:51.806Z,3.55
2018-08-03T13:11:20.809Z,4.83
2018-08-03T13:13:49.944Z,4.30
2018-08-03T13:16:19.028Z,4.42
2018-08-03T13:18:48.059Z,3.22
2018-08-03T13:21:27.968Z,4.22
2018-08-03T13:24:01.169Z,4.72
2018-08-03T13:26:30.168Z,4.30
2018-08-03T13:28:59.597Z,5.10
2018-08-03T13:31:29.735Z,4.73
2018-08-03T13:33:58.789Z,4.30
2018-08-03T13:36:29.152Z,5.47
2018-08-03T13:38:58.126Z,3.98
2018-08-03T13:41:27.157Z,4.70
2018-08-03T13:43:56.230Z,4.33
2018-08-03T13:46:25.208Z,3.83
2018-08-03T13:48:54.159Z,4.15
2018-08-03T13:51:23.177Z,3.50
2018-08-03T13:53:52.288Z,4.37
2018-08-03T13:56:21.312Z,4.28
2018-08-03T13:58:50.267Z,3.90
2018-08-03T14:01:30.369Z,4.03
2018-08-03T14:03:59.412Z,5.20
2018-08-03T14:06:28.412Z,4.63
2018-08-03T14:08:57.487Z,4.30
2018-08-03T14:11:26.563Z,4.23
2018-08-03T14:13:55.570Z,5.20
2018-08-03T14:16:24.611Z,5.00
2018-08-03T14:18:53.580Z,4.80
2018-08-03T14:21:22.833Z,4.90
2018-08-03T14:23:51.886Z,4.30
2018-08-03T14:26:20.905Z,6.27
2018-08-03T14:28:50.022Z,5.30
2018-08-03T14:31:19.076Z,4.80
2018-08-03T14:33:48.109Z,6.20
2018-08-03T14:36:17.177Z,5.33
2018-08-03T14:38:46.263Z,5.17
2018-08-03T14:41:15.343Z,4.73
2018-08-03T14:43:44.422Z,5.30
2018-08-03T14:46:13.403Z,5.83
2018-08-03T14:48:42.368Z,5.20
2018-08-03T14:51:11.401Z,5.80
2018-08-03T14:53:40.384Z,5.60
2018-08-03T14:56:09.464Z,5.47
2018-08-03T14:58:38.479Z,4.60
2018-08-03T15:01:07.577Z,4.93
2018-08-03T15:03:36.609Z,5.13
2018-08-03T15:06:05.737Z,5.27
2018-08-03T15:08:34.776Z,4.90
2018-08-03T15:11:03.802Z,4.93
2018-08-03T15:13:32.922Z,5.30
2018-08-03T15:16:01.894Z,5.13
2018-08-03T15:18:30.984Z,5.03
2018-08-03T15:20:59.981Z,4.93
2018-08-03T15:23:28.956Z,5.70
2018-08-03T15:25:58.127Z,4.60
2018-08-03T15:28:27.234Z,5.10
2018-08-03T15:30:56.220Z,4.87
2018-08-03T15:33:25.688Z,5.33
2018-08-03T15:35:54.910Z,4.80
2018-08-03T15:38:23.942Z,5.00
2018-08-03T15:40:53.001Z,4.93
2018-08-03T15:43:21.959Z,4.63
2018-08-03T15:45:50.932Z,4.90
2018-08-03T15:48:19.883Z,4.93
2018-08-03T15:50:48.977Z,5.00
2018-08-03T15:53:18.057Z,4.80
2018-08-03T15:55:47.067Z,5.67
2018-08-03T15:58:16.141Z,4.93
2018-08-03T16:00:45.153Z,4.63
2018-08-03T16:03:14.293Z,5.47
2018-08-03T16:05:43.365Z,5.80
2018-08-03T16:08:12.404Z,4.40
2018-08-03T16:10:41.420Z,5.57
2018-08-03T16:13:10.392Z,4.97
2018-08-03T16:15:39.365Z,5.43
2018-08-03T16:18:08.430Z,4.77
2018-08-03T16:20:37.507Z,5.00
2018-08-03T16:23:06.484Z,4.77
2018-08-03T16:25:35.618Z,6.10
2018-08-03T16:28:04.720Z,5.00
2018-08-03T16:30:33.665Z,4.63
2018-08-03T16:33:02.640Z,5.20
2018-08-03T16:35:31.668Z,5.30
2018-08-03T16:38:00.709Z,5.20
2018-08-03T16:40:29.760Z,5.77
2018-08-03T16:42:58.707Z,5.10
2018-08-03T16:45:27.882Z,4.70
2018-08-03T16:47:57.604Z,5.43
2018-08-03T16:50:26.572Z,6.00
2018-08-03T16:52:55.620Z,4.90
2018-08-03T16:55:24.769Z,5.87
2018-08-03T16:57:54.331Z,6.53
2018-08-03T17:00:23.592Z,6.33
2018-08-03T17:02:52.710Z,5.37
2018-08-03T17:05:21.724Z,5.93
2018-08-03T17:07:50.915Z,4.80
2018-08-03T17:10:19.955Z,5.57
2018-08-03T17:12:49.004Z,6.27
2018-08-03T17:15:17.971Z,5.50
2018-08-03T17:17:47.081Z,5.80
2018-08-03T17:20:16.115Z,5.90
2018-08-03T17:22:45.097Z,6.40
2018-08-03T17:25:14.216Z,7.00
2018-08-03T17:27:43.241Z,6.40
2018-08-03T17:30:12.215Z,7.40
2018-08-03T17:32:41.288Z,6.90
2018-08-03T17:35:10.299Z,6.40
2018-08-03T17:37:39.590Z,6.20
2018-08-03T17:40:08.607Z,7.60
2018-08-03T17:42:37.664Z,6.10
2018-08-03T17:45:06.769Z,7.60
2018-08-03T17:47:35.796Z,8.30
2018-08-03T17:50:05.399Z,7.90
2018-08-03T17:52:34.733Z,8.43
2018-08-03T17:55:03.836Z,9.10
2018-08-03T17:57:32.796Z,7.77
2018-08-03T18:00:01.814Z,8.30
2018-08-03T18:02:30.831Z,8.90
2018-08-03T18:04:59.879Z,7.07
2018-08-03T18:07:28.966Z,8.03
2018-08-03T18:09:58.009Z,8.80
2018-08-03T18:12:27.117Z,8.57
2018-08-03T18:14:56.138Z,7.53
2018-08-03T18:17:25.201Z,8.23
2018-08-03T18:19:54.166Z,8.63
2018-08-03T18:22:23.117Z,8.73
2018-08-03T18:24:52.221Z,7.80
2018-08-03T18:27:21.274Z,9.00
2018-08-03T18:29:50.299Z,10.10
2018-08-03T18:32:19.324Z,9.10
2018-08-03T18:34:48.283Z,9.77
2018-08-03T18:37:17.459Z,8.00
2018-08-03T18:39:46.479Z,8.17
2018-08-03T18:42:15.625Z,8.93
2018-08-03T18:44:44.677Z,9.40
2018-08-03T18:47:13.633Z,7.83
2018-08-03T18:49:42.673Z,8.30
2018-08-03T18:52:11.747Z,9.30
2018-08-03T18:54:40.837Z,8.20
2018-08-03T18:57:10.028Z,9.33
2018-08-03T18:59:39.060Z,8.47
2018-08-03T19:02:08.109Z,12.80
2018-08-03T19:04:37.267Z,8.67
2018-08-03T19:07:06.375Z,10.20
2018-08-03T19:09:35.459Z,7.63
2018-08-03T19:12:04.431Z,8.70
2018-08-03T19:14:33.433Z,9.30
2018-08-03T19:17:02.589Z,7.70
2018-08-03T19:19:31.786Z,8.10
2018-08-03T19:22:00.927Z,7.40
2018-08-03T19:24:29.835Z,8.50
2018-08-03T19:26:58.988Z,8.50
2018-08-03T19:29:27.952Z,8.80
2018-08-03T19:31:57.076Z,7.97
2018-08-03T19:34:26.135Z,7.60
2018-08-03T19:36:55.219Z,7.73
2018-08-03T19:39:24.284Z,8.20
2018-08-03T19:41:53.237Z,8.60
2018-08-03T19:44:22.332Z,8.43
2018-08-03T19:46:51.296Z,7.37
2018-08-03T19:49:20.316Z,8.47
2018-08-03T19:51:49.329Z,6.67
2018-08-03T19:54:18.425Z,7.43
2018-08-03T19:56:47.435Z,8.33
2018-08-03T19:59:16.485Z,6.80
2018-08-03T20:01:45.516Z,7.90
2018-08-03T20:04:14.452Z,7.37
2018-08-03T20:06:43.513Z,7.13
2018-08-03T20:09:13.304Z,8.07
2018-08-03T20:11:42.300Z,8.00
2018-08-03T20:14:11.268Z,7.47
2018-08-03T20:16:40.269Z,7.93
2018-08-03T20:19:09.432Z,7.10
2018-08-03T20:21:38.497Z,6.60
2018-08-03T20:24:07.463Z,7.37
2018-08-03T20:26:36.489Z,7.47
2018-08-03T20:29:05.631Z,6.90
2018-08-03T20:31:34.616Z,7.20
2018-08-03T20:34:03.583Z,8.03
2018-08-03T20:36:32.654Z,8.23
2018-08-03T20:39:01.719Z,8.90
2018-08-03T20:41:30.809Z,8.10
2018-08-03T20:43:59.781Z,8.80
2018-08-03T20:46:28.808Z,6.97
2018-08-03T20:48:57.825Z,8.07
2018-08-03T20:51:26.840Z,7.50
2018-08-03T20:53:55.921Z,6.43
2018-08-03T20:56:24.871Z,7.10
2018-08-03T20:58:53.900Z,7.40
2018-08-03T21:01:23.001Z,7.20
2018-08-03T21:03:52.321Z,7.80
2018-08-03T21:06:21.335Z,7.30
2018-08-03T21:08:50.283Z,7.90
2018-08-03T21:11:19.383Z,7.03
2018-08-03T21:13:48.311Z,6.43
2018-08-03T21:16:17.248Z,7.23
2018-08-03T21:18:46.213Z,7.07
2018-08-03T21:21:15.159Z,7.20
2018-08-03T21:23:44.155Z,7.60
2018-08-03T21:26:13.168Z,7.20
2018-08-03T21:28:42.180Z,6.53
2018-08-03T21:31:11.237Z,6.77
2018-08-03T21:33:40.252Z,7.87
2018-08-03T21:36:09.277Z,6.77
2018-08-03T21:38:38.277Z,6.40
2018-08-03T21:41:07.296Z,6.20
2018-08-03T21:43:36.344Z,6.57
2018-08-03T21:46:06.413Z,7.57
2018-08-03T21:48:35.467Z,7.60
2018-08-03T21:51:04.414Z,7.03
2018-08-03T21:53:33.367Z,6.80
2018-08-03T21:56:02.417Z,7.60
2018-08-03T21:58:31.566Z,8.50
2018-08-03T22:01:00.531Z,7.90
2018-08-03T22:03:29.640Z,7.13
2018-08-03T22:05:58.745Z,6.93
2018-08-03T22:08:27.841Z,7.10
2018-08-03T22:10:57.021Z,8.53
2018-08-03T22:13:26.020Z,8.63
2018-08-03T22:15:55.037Z,9.80
2018-08-03T22:18:24.066Z,7.87
2018-08-03T22:20:53.080Z,7.00
2018-08-03T22:23:22.032Z,6.23
2018-08-03T22:25:50.990Z,7.40
2018-08-03T22:28:20.247Z,7.57
2018-08-03T22:30:49.296Z,6.03
2018-08-03T22:33:18.316Z,5.67
2018-08-03T22:35:47.283Z,6.80
2018-08-03T22:38:16.404Z,6.47
2018-08-03T22:40:45.450Z,6.93
2018-08-03T22:43:14.537Z,5.43
2018-08-03T22:45:43.516Z,3.30
2018-08-03T22:48:12.509Z,2.40
2018-08-03T22:50:41.538Z,2.37
2018-08-03T22:53:10.601Z,3.57
2018-08-03T22:55:39.837Z,5.20
2018-08-03T22:58:08.905Z,3.23
2018-08-03T23:00:37.921Z,1.30
2018-08-03T23:03:07.230Z,1.47
2018-08-03T23:05:36.178Z,1.00
2018-08-03T23:08:05.204Z,1.00
2018-08-03T23:10:34.179Z,0.63
2018-08-03T23:13:03.245Z,0.60
2018-08-03T23:15:32.253Z,0.80
2018-08-03T23:18:01.200Z,0.60
2018-08-03T23:20:30.282Z,0.80
2018-08-03T23:22:59.331Z,0.67
2018-08-03T23:25:28.315Z,0.60
2018-08-03T23:27:57.400Z,0.80
2018-08-03T23:30:26.425Z,0.50
2018-08-03T23:32:55.488Z,0.80
2018-08-03T23:35:24.451Z,0.60
2018-08-03T23:37:53.524Z,0.70
2018-08-03T23:40:22.472Z,0.60
2018-08-03T23:42:51.475Z,0.60
2018-08-03T23:45:20.489Z,0.57
2018-08-03T23:47:49.651Z,0.50
2018-08-03T23:50:19.382Z,0.60
2018-08-03T23:52:49.462Z,0.50
2018-08-03T23:55:18.549Z,0.50
2018-08-03T23:57:47.556Z,0.50
